sensor_id;sensor_type;location;lat;lon;timestamp;temperature;humidity
11501;DHT22;5807;51.606;7.624;2022-09-03T00:03:15;15.20;84.10
11501;DHT22;5807;51.606;7.624;2022-09-03T00:05:55;15.10;84.70
11501;DHT22;5807;51.606;7.624;2022-09-03T00:08:57;15.10;86.10
11501;DHT22;5807;51.606;7.624;2022-09-03T00:12:22;15.00;86.00
11501;DHT22;5807;51.606;7.624;2022-09-03T00:18:46;14.80;86.50
11501;DHT22;5807;51.606;7.624;2022-09-03T00:21:47;14.80;87.00
11501;DHT22;5807;51.606;7.624;2022-09-03T00:27:41;14.70;87.40
11501;DHT22;5807;51.606;7.624;2022-09-03T00:33:09;14.80;87.10
11501;DHT22;5807;51.606;7.624;2022-09-03T00:36:34;14.80;86.80
11501;DHT22;5807;51.606;7.624;2022-09-03T00:45:19;14.90;86.70
11501;DHT22;5807;51.606;7.624;2022-09-03T00:55:25;14.80;87.80
11501;DHT22;5807;51.606;7.624;2022-09-03T03:07:57;12.90;93.70
11501;DHT22;5807;51.606;7.624;2022-09-03T03:24:45;12.70;93.90
11501;DHT22;5807;51.606;7.624;2022-09-03T03:31:01;12.70;94.20
11501;DHT22;5807;51.606;7.624;2022-09-03T03:47:15;12.70;94.50
11501;DHT22;5807;51.606;7.624;2022-09-03T03:50:38;12.70;94.70
11501;DHT22;5807;51.606;7.624;2022-09-03T04:28:58;12.60;95.40
11501;DHT22;5807;51.606;7.624;2022-09-03T04:35:07;12.50;95.40
11501;DHT22;5807;51.606;7.624;2022-09-03T05:09:52;12.60;96.10
11501;DHT22;5807;51.606;7.624;2022-09-03T05:20:21;12.60;96.10
11501;DHT22;5807;51.606;7.624;2022-09-03T05:29:46;12.70;96.70
11501;DHT22;5807;51.606;7.624;2022-09-03T06:05:16;13.70;95.90
11501;DHT22;5807;51.606;7.624;2022-09-03T06:31:24;15.40;94.00
11501;DHT22;5807;51.606;7.624;2022-09-03T06:33:52;15.40;94.20
11501;DHT22;5807;51.606;7.624;2022-09-03T06:36:20;15.60;93.00
11501;DHT22;5807;51.606;7.624;2022-09-03T06:38:50;15.70;93.30
11501;DHT22;5807;51.606;7.624;2022-09-03T06:41:19;15.70;93.30
11501;DHT22;5807;51.606;7.624;2022-09-03T06:43:51;15.80;93.20
11501;DHT22;5807;51.606;7.624;2022-09-03T06:46:19;16.00;93.40
11501;DHT22;5807;51.606;7.624;2022-09-03T06:48:50;16.30;92.50
11501;DHT22;5807;51.606;7.624;2022-09-03T06:51:19;16.90;91.90
11501;DHT22;5807;51.606;7.624;2022-09-03T06:53:48;17.40;91.00
11501;DHT22;5807;51.606;7.624;2022-09-03T06:56:18;18.10;89.50
11501;DHT22;5807;51.606;7.624;2022-09-03T06:58:52;18.40;90.40
11501;DHT22;5807;51.606;7.624;2022-09-03T07:01:21;18.70;90.00
11501;DHT22;5807;51.606;7.624;2022-09-03T07:03:55;19.00;88.20
11501;DHT22;5807;51.606;7.624;2022-09-03T07:06:23;19.50;84.50
11501;DHT22;5807;51.606;7.624;2022-09-03T07:08:52;19.60;85.00
11501;DHT22;5807;51.606;7.624;2022-09-03T07:11:21;19.80;86.30
11501;DHT22;5807;51.606;7.624;2022-09-03T07:13:51;20.10;82.60
11501;DHT22;5807;51.606;7.624;2022-09-03T07:58:01;21.50;77.40
11501;DHT22;5807;51.606;7.624;2022-09-03T08:00:28;21.40;77.10
11501;DHT22;5807;51.606;7.624;2022-09-03T08:02:58;21.60;78.20
11501;DHT22;5807;51.606;7.624;2022-09-03T08:05:31;21.60;76.10
11501;DHT22;5807;51.606;7.624;2022-09-03T08:07:58;21.70;77.00
11501;DHT22;5807;51.606;7.624;2022-09-03T08:10:25;21.60;75.50
11501;DHT22;5807;51.606;7.624;2022-09-03T08:12:56;21.40;74.40
11501;DHT22;5807;51.606;7.624;2022-09-03T08:15:24;21.70;78.50
11501;DHT22;5807;51.606;7.624;2022-09-03T08:17:51;21.90;77.00
11501;DHT22;5807;51.606;7.624;2022-09-03T08:20:18;22.20;76.20
11501;DHT22;5807;51.606;7.624;2022-09-03T08:22:45;22.30;76.90
11501;DHT22;5807;51.606;7.624;2022-09-03T08:25:12;22.60;78.40
11501;DHT22;5807;51.606;7.624;2022-09-03T08:27:38;22.70;74.20
11501;DHT22;5807;51.606;7.624;2022-09-03T08:30:08;23.00;74.10
11501;DHT22;5807;51.606;7.624;2022-09-03T08:32:36;23.20;73.00
11501;DHT22;5807;51.606;7.624;2022-09-03T08:35:04;22.90;77.50
11501;DHT22;5807;51.606;7.624;2022-09-03T08:37:31;22.70;75.00
11501;DHT22;5807;51.606;7.624;2022-09-03T08:39:58;22.60;78.30
11501;DHT22;5807;51.606;7.624;2022-09-03T08:42:33;22.40;77.00
11501;DHT22;5807;51.606;7.624;2022-09-03T08:45:07;21.90;77.10
11501;DHT22;5807;51.606;7.624;2022-09-03T08:47:39;21.40;76.70
11501;DHT22;5807;51.606;7.624;2022-09-03T08:50:11;21.40;77.20
11501;DHT22;5807;51.606;7.624;2022-09-03T08:52:45;21.30;77.80
11501;DHT22;5807;51.606;7.624;2022-09-03T08:55:19;21.40;79.90
11501;DHT22;5807;51.606;7.624;2022-09-03T08:57:49;21.50;77.70
11501;DHT22;5807;51.606;7.624;2022-09-03T09:00:22;22.00;77.80
11501;DHT22;5807;51.606;7.624;2022-09-03T09:02:59;22.70;76.20
11501;DHT22;5807;51.606;7.624;2022-09-03T09:05:40;23.30;74.70
11501;DHT22;5807;51.606;7.624;2022-09-03T09:08:17;23.20;75.10
11501;DHT22;5807;51.606;7.624;2022-09-03T09:10:48;23.20;73.10
11501;DHT22;5807;51.606;7.624;2022-09-03T09:13:24;23.40;73.20
11501;DHT22;5807;51.606;7.624;2022-09-03T09:16:01;23.30;73.70
11501;DHT22;5807;51.606;7.624;2022-09-03T09:18:38;23.30;72.80
11501;DHT22;5807;51.606;7.624;2022-09-03T09:21:11;23.30;72.60
11501;DHT22;5807;51.606;7.624;2022-09-03T09:23:42;23.10;75.60
11501;DHT22;5807;51.606;7.624;2022-09-03T09:26:13;23.50;76.90
11501;DHT22;5807;51.606;7.624;2022-09-03T09:28:42;23.90;76.00
11501;DHT22;5807;51.606;7.624;2022-09-03T09:31:14;24.10;70.70
11501;DHT22;5807;51.606;7.624;2022-09-03T09:33:43;24.10;71.90
11501;DHT22;5807;51.606;7.624;2022-09-03T09:36:14;24.10;74.50
11501;DHT22;5807;51.606;7.624;2022-09-03T09:38:44;24.40;72.30
11501;DHT22;5807;51.606;7.624;2022-09-03T09:41:14;24.50;70.70
11501;DHT22;5807;51.606;7.624;2022-09-03T09:43:41;24.70;69.10
11501;DHT22;5807;51.606;7.624;2022-09-03T09:46:15;24.80;69.20
11501;DHT22;5807;51.606;7.624;2022-09-03T09:48:48;25.00;71.40
11501;DHT22;5807;51.606;7.624;2022-09-03T09:51:20;25.10;67.20
11501;DHT22;5807;51.606;7.624;2022-09-03T09:53:58;25.30;67.70
11501;DHT22;5807;51.606;7.624;2022-09-03T09:56:26;25.50;70.90
11501;DHT22;5807;51.606;7.624;2022-09-03T09:59:01;25.60;69.10
11501;DHT22;5807;51.606;7.624;2022-09-03T10:01:30;25.60;69.30
11501;DHT22;5807;51.606;7.624;2022-09-03T10:03:59;25.50;67.20
11501;DHT22;5807;51.606;7.624;2022-09-03T10:06:28;25.60;66.80
11501;DHT22;5807;51.606;7.624;2022-09-03T10:09:15;25.80;65.40
11501;DHT22;5807;51.606;7.624;2022-09-03T10:11:44;25.30;66.90
11501;DHT22;5807;51.606;7.624;2022-09-03T10:14:19;25.80;67.50
11501;DHT22;5807;51.606;7.624;2022-09-03T10:17:01;25.90;64.50
11501;DHT22;5807;51.606;7.624;2022-09-03T10:19:38;25.70;65.10
11501;DHT22;5807;51.606;7.624;2022-09-03T10:22:11;25.70;65.10
11501;DHT22;5807;51.606;7.624;2022-09-03T10:24:47;25.60;65.20
11501;DHT22;5807;51.606;7.624;2022-09-03T10:27:16;25.90;69.30
11501;DHT22;5807;51.606;7.624;2022-09-03T10:29:44;26.20;69.20
11501;DHT22;5807;51.606;7.624;2022-09-03T10:32:31;26.10;64.30
11501;DHT22;5807;51.606;7.624;2022-09-03T10:35:04;26.60;65.30
11501;DHT22;5807;51.606;7.624;2022-09-03T10:37:39;26.00;65.80
11501;DHT22;5807;51.606;7.624;2022-09-03T10:40:17;27.10;64.60
11501;DHT22;5807;51.606;7.624;2022-09-03T10:42:50;26.90;63.10
11501;DHT22;5807;51.606;7.624;2022-09-03T10:45:30;26.50;64.00
11501;DHT22;5807;51.606;7.624;2022-09-03T10:48:21;25.70;62.80
11501;DHT22;5807;51.606;7.624;2022-09-03T10:50:56;25.20;68.00
11501;DHT22;5807;51.606;7.624;2022-09-03T10:53:37;25.30;71.30
11501;DHT22;5807;51.606;7.624;2022-09-03T10:56:10;25.70;69.70
11501;DHT22;5807;51.606;7.624;2022-09-03T10:58:58;26.20;65.60
11501;DHT22;5807;51.606;7.624;2022-09-03T11:01:35;26.70;63.30
11501;DHT22;5807;51.606;7.624;2022-09-03T11:04:16;27.10;65.50
11501;DHT22;5807;51.606;7.624;2022-09-03T11:06:50;27.50;63.60
11501;DHT22;5807;51.606;7.624;2022-09-03T11:09:21;27.70;61.70
11501;DHT22;5807;51.606;7.624;2022-09-03T11:11:53;27.70;64.30
11501;DHT22;5807;51.606;7.624;2022-09-03T11:14:29;27.70;61.60
11501;DHT22;5807;51.606;7.624;2022-09-03T11:17:02;27.70;60.80
11501;DHT22;5807;51.606;7.624;2022-09-03T11:19:36;27.60;60.70
11501;DHT22;5807;51.606;7.624;2022-09-03T11:22:06;27.20;62.90
11501;DHT22;5807;51.606;7.624;2022-09-03T11:24:34;26.60;66.50
11501;DHT22;5807;51.606;7.624;2022-09-03T11:27:17;26.20;66.90
11501;DHT22;5807;51.606;7.624;2022-09-03T11:29:50;25.80;70.10
11501;DHT22;5807;51.606;7.624;2022-09-03T11:32:22;26.00;66.50
11501;DHT22;5807;51.606;7.624;2022-09-03T11:34:52;26.20;69.10
11501;DHT22;5807;51.606;7.624;2022-09-03T11:37:21;26.80;67.80
11501;DHT22;5807;51.606;7.624;2022-09-03T11:40:03;27.50;69.40
11501;DHT22;5807;51.606;7.624;2022-09-03T11:42:34;27.80;66.50
11501;DHT22;5807;51.606;7.624;2022-09-03T11:45:19;27.30;66.00
11501;DHT22;5807;51.606;7.624;2022-09-03T11:47:47;27.10;65.70
11501;DHT22;5807;51.606;7.624;2022-09-03T11:50:21;26.70;67.90
11501;DHT22;5807;51.606;7.624;2022-09-03T11:52:50;26.50;68.20
11501;DHT22;5807;51.606;7.624;2022-09-03T11:55:25;26.50;67.80
11501;DHT22;5807;51.606;7.624;2022-09-03T11:57:54;26.40;69.50
11501;DHT22;5807;51.606;7.624;2022-09-03T12:00:21;26.30;69.80
11501;DHT22;5807;51.606;7.624;2022-09-03T12:02:51;26.30;66.30
11501;DHT22;5807;51.606;7.624;2022-09-03T12:05:27;26.20;67.20
11501;DHT22;5807;51.606;7.624;2022-09-03T12:08:11;26.00;68.60
11501;DHT22;5807;51.606;7.624;2022-09-03T12:10:48;25.90;71.00
11501;DHT22;5807;51.606;7.624;2022-09-03T12:13:32;26.00;71.90
11501;DHT22;5807;51.606;7.624;2022-09-03T12:16:25;26.00;71.00
11501;DHT22;5807;51.606;7.624;2022-09-03T12:18:59;26.00;68.60
11501;DHT22;5807;51.606;7.624;2022-09-03T12:21:28;26.10;70.60
11501;DHT22;5807;51.606;7.624;2022-09-03T12:23:55;26.00;69.20
11501;DHT22;5807;51.606;7.624;2022-09-03T12:26:23;25.90;72.00
11501;DHT22;5807;51.606;7.624;2022-09-03T12:28:53;26.00;69.00
11501;DHT22;5807;51.606;7.624;2022-09-03T12:31:22;26.00;68.60
11501;DHT22;5807;51.606;7.624;2022-09-03T12:33:52;26.00;69.80
11501;DHT22;5807;51.606;7.624;2022-09-03T12:36:20;25.90;70.00
11501;DHT22;5807;51.606;7.624;2022-09-03T12:38:49;25.90;73.10
11501;DHT22;5807;51.606;7.624;2022-09-03T12:41:20;26.30;69.60
11501;DHT22;5807;51.606;7.624;2022-09-03T12:43:51;26.30;67.30
11501;DHT22;5807;51.606;7.624;2022-09-03T12:46:22;26.30;66.60
11501;DHT22;5807;51.606;7.624;2022-09-03T12:48:53;26.20;68.80
11501;DHT22;5807;51.606;7.624;2022-09-03T12:51:21;26.20;68.20
11501;DHT22;5807;51.606;7.624;2022-09-03T12:53:50;26.00;75.30
11501;DHT22;5807;51.606;7.624;2022-09-03T12:56:19;26.10;71.00
11501;DHT22;5807;51.606;7.624;2022-09-03T12:58:50;25.90;71.40
11501;DHT22;5807;51.606;7.624;2022-09-03T13:01:21;25.70;71.10
11501;DHT22;5807;51.606;7.624;2022-09-03T13:03:54;25.80;74.20
11501;DHT22;5807;51.606;7.624;2022-09-03T13:06:24;25.90;72.90
11501;DHT22;5807;51.606;7.624;2022-09-03T13:11:22;25.80;70.40
11501;DHT22;5807;51.606;7.624;2022-09-03T13:13:53;25.90;73.10
11501;DHT22;5807;51.606;7.624;2022-09-03T13:16:45;25.90;71.00
11501;DHT22;5807;51.606;7.624;2022-09-03T13:19:18;25.90;73.20
11501;DHT22;5807;51.606;7.624;2022-09-03T13:21:51;26.00;74.10
11501;DHT22;5807;51.606;7.624;2022-09-03T13:24:36;25.90;71.30
11501;DHT22;5807;51.606;7.624;2022-09-03T13:27:15;26.20;75.60
11501;DHT22;5807;51.606;7.624;2022-09-03T13:30:03;26.60;71.90
11501;DHT22;5807;51.606;7.624;2022-09-03T13:32:38;27.00;70.50
11501;DHT22;5807;51.606;7.624;2022-09-03T13:35:11;27.60;68.30
11501;DHT22;5807;51.606;7.624;2022-09-03T13:37:42;27.80;66.70
11501;DHT22;5807;51.606;7.624;2022-09-03T13:40:17;27.70;66.70
11501;DHT22;5807;51.606;7.624;2022-09-03T13:42:49;27.30;66.80
11501;DHT22;5807;51.606;7.624;2022-09-03T13:45:26;27.00;68.60
11501;DHT22;5807;51.606;7.624;2022-09-03T13:47:59;26.50;66.50
11501;DHT22;5807;51.606;7.624;2022-09-03T13:50:47;26.40;70.40
11501;DHT22;5807;51.606;7.624;2022-09-03T13:53:24;26.80;70.40
11501;DHT22;5807;51.606;7.624;2022-09-03T13:56:03;27.30;70.20
11501;DHT22;5807;51.606;7.624;2022-09-03T13:58:36;27.30;66.40
11501;DHT22;5807;51.606;7.624;2022-09-03T14:01:10;27.50;72.50
11501;DHT22;5807;51.606;7.624;2022-09-03T14:03:43;27.50;66.00
11501;DHT22;5807;51.606;7.624;2022-09-03T14:06:19;27.50;68.50
11501;DHT22;5807;51.606;7.624;2022-09-03T14:09:00;27.80;67.30
11501;DHT22;5807;51.606;7.624;2022-09-03T14:11:33;28.00;66.40
11501;DHT22;5807;51.606;7.624;2022-09-03T14:14:12;28.00;65.20
11501;DHT22;5807;51.606;7.624;2022-09-03T14:16:46;27.80;65.10
11501;DHT22;5807;51.606;7.624;2022-09-03T14:19:20;27.40;66.00
11501;DHT22;5807;51.606;7.624;2022-09-03T14:21:52;27.10;67.30
11501;DHT22;5807;51.606;7.624;2022-09-03T14:24:24;27.20;66.90
11501;DHT22;5807;51.606;7.624;2022-09-03T14:26:55;27.10;67.50
11501;DHT22;5807;51.606;7.624;2022-09-03T14:29:24;27.00;68.20
11501;DHT22;5807;51.606;7.624;2022-09-03T14:35:27;26.40;69.60
11501;DHT22;5807;51.606;7.624;2022-09-03T14:38:45;26.10;73.00
11501;DHT22;5807;51.606;7.624;2022-09-03T14:41:42;26.10;75.00
11501;DHT22;5807;51.606;7.624;2022-09-03T14:44:30;26.20;70.40
11501;DHT22;5807;51.606;7.624;2022-09-03T14:47:08;26.20;73.10
11501;DHT22;5807;51.606;7.624;2022-09-03T14:49:50;26.20;71.00
11501;DHT22;5807;51.606;7.624;2022-09-03T14:52:43;26.10;72.80
11501;DHT22;5807;51.606;7.624;2022-09-03T14:55:28;25.90;74.00
11501;DHT22;5807;51.606;7.624;2022-09-03T14:58:16;25.70;74.80
11501;DHT22;5807;51.606;7.624;2022-09-03T15:00:51;25.60;72.20
11501;DHT22;5807;51.606;7.624;2022-09-03T15:03:42;25.50;74.80
11501;DHT22;5807;51.606;7.624;2022-09-03T15:06:24;25.30;72.30
11501;DHT22;5807;51.606;7.624;2022-09-03T15:09:14;25.10;73.50
11501;DHT22;5807;51.606;7.624;2022-09-03T15:11:48;25.00;72.60
11501;DHT22;5807;51.606;7.624;2022-09-03T15:14:21;25.00;73.90
11501;DHT22;5807;51.606;7.624;2022-09-03T15:16:57;24.90;74.50
11501;DHT22;5807;51.606;7.624;2022-09-03T15:19:42;24.90;74.50
11501;DHT22;5807;51.606;7.624;2022-09-03T15:22:24;24.90;74.50
11501;DHT22;5807;51.606;7.624;2022-09-03T15:24:57;24.90;76.00
11501;DHT22;5807;51.606;7.624;2022-09-03T15:27:42;24.90;74.20
11501;DHT22;5807;51.606;7.624;2022-09-03T15:30:12;24.90;73.80
11501;DHT22;5807;51.606;7.624;2022-09-03T15:32:58;24.90;74.00
11501;DHT22;5807;51.606;7.624;2022-09-03T15:35:41;24.80;76.10
11501;DHT22;5807;51.606;7.624;2022-09-03T15:38:19;24.90;74.20
11501;DHT22;5807;51.606;7.624;2022-09-03T15:40:50;24.90;75.00
11501;DHT22;5807;51.606;7.624;2022-09-03T15:43:22;25.00;73.50
11501;DHT22;5807;51.606;7.624;2022-09-03T15:45:53;25.10;74.10
11501;DHT22;5807;51.606;7.624;2022-09-03T15:48:31;25.40;74.90
11501;DHT22;5807;51.606;7.624;2022-09-03T15:51:10;25.30;73.00
11501;DHT22;5807;51.606;7.624;2022-09-03T15:53:44;25.40;75.00
11501;DHT22;5807;51.606;7.624;2022-09-03T15:56:19;25.40;73.50
11501;DHT22;5807;51.606;7.624;2022-09-03T15:58:54;25.30;72.60
11501;DHT22;5807;51.606;7.624;2022-09-03T16:01:33;25.30;75.60
11501;DHT22;5807;51.606;7.624;2022-09-03T16:04:18;25.10;73.90
11501;DHT22;5807;51.606;7.624;2022-09-03T16:06:58;25.00;73.00
11501;DHT22;5807;51.606;7.624;2022-09-03T16:09:35;25.10;71.30
11501;DHT22;5807;51.606;7.624;2022-09-03T16:12:13;25.10;72.50
11501;DHT22;5807;51.606;7.624;2022-09-03T16:14:45;25.10;72.70
11501;DHT22;5807;51.606;7.624;2022-09-03T16:17:25;25.30;71.70
11501;DHT22;5807;51.606;7.624;2022-09-03T16:19:59;25.40;74.10
11501;DHT22;5807;51.606;7.624;2022-09-03T16:22:30;25.40;71.00
11501;DHT22;5807;51.606;7.624;2022-09-03T16:25:03;25.30;74.40
11501;DHT22;5807;51.606;7.624;2022-09-03T16:27:34;25.20;70.80
11501;DHT22;5807;51.606;7.624;2022-09-03T16:30:08;25.00;71.00
11501;DHT22;5807;51.606;7.624;2022-09-03T16:32:48;24.80;71.70
11501;DHT22;5807;51.606;7.624;2022-09-03T16:35:29;24.70;72.30
11501;DHT22;5807;51.606;7.624;2022-09-03T16:41:10;24.40;74.70
11501;DHT22;5807;51.606;7.624;2022-09-03T16:43:44;24.30;72.70
11501;DHT22;5807;51.606;7.624;2022-09-03T16:46:20;24.30;73.10
11501;DHT22;5807;51.606;7.624;2022-09-03T16:49:04;24.30;74.90
11501;DHT22;5807;51.606;7.624;2022-09-03T16:51:41;24.30;76.00
11501;DHT22;5807;51.606;7.624;2022-09-03T16:54:22;24.20;74.90
11501;DHT22;5807;51.606;7.624;2022-09-03T16:56:59;24.10;74.10
11501;DHT22;5807;51.606;7.624;2022-09-03T16:59:40;24.10;74.80
11501;DHT22;5807;51.606;7.624;2022-09-03T17:02:24;24.00;75.40
11501;DHT22;5807;51.606;7.624;2022-09-03T17:05:06;24.00;74.80
11501;DHT22;5807;51.606;7.624;2022-09-03T17:07:52;23.90;74.10
11501;DHT22;5807;51.606;7.624;2022-09-03T17:10:26;23.80;75.20
11501;DHT22;5807;51.606;7.624;2022-09-03T17:13:16;23.80;75.00
11501;DHT22;5807;51.606;7.624;2022-09-03T17:39:57;23.10;74.60
11501;DHT22;5807;51.606;7.624;2022-09-03T17:45:35;22.80;75.70
11501;DHT22;5807;51.606;7.624;2022-09-03T18:11:29;22.10;75.50
11501;DHT22;5807;51.606;7.624;2022-09-03T18:14:04;22.10;76.00
11501;DHT22;5807;51.606;7.624;2022-09-03T18:16:36;22.10;76.00
11501;DHT22;5807;51.606;7.624;2022-09-03T18:19:09;22.00;77.70
11501;DHT22;5807;51.606;7.624;2022-09-03T18:21:45;21.90;78.00
11501;DHT22;5807;51.606;7.624;2022-09-03T18:24:34;21.80;77.30
11501;DHT22;5807;51.606;7.624;2022-09-03T18:27:28;21.60;78.60
11501;DHT22;5807;51.606;7.624;2022-09-03T18:30:16;21.50;79.00
11501;DHT22;5807;51.606;7.624;2022-09-03T18:33:01;21.50;79.90
11501;DHT22;5807;51.606;7.624;2022-09-03T18:35:46;21.50;79.70
11501;DHT22;5807;51.606;7.624;2022-09-03T18:38:33;21.40;80.30
11501;DHT22;5807;51.606;7.624;2022-09-03T18:41:38;21.30;81.40
11501;DHT22;5807;51.606;7.624;2022-09-03T18:44:34;21.30;81.10
11501;DHT22;5807;51.606;7.624;2022-09-03T18:47:34;21.20;81.70
11501;DHT22;5807;51.606;7.624;2022-09-03T18:50:25;21.20;82.00
11501;DHT22;5807;51.606;7.624;2022-09-03T18:53:16;21.20;82.80
11501;DHT22;5807;51.606;7.624;2022-09-03T18:56:10;21.00;83.30
11501;DHT22;5807;51.606;7.624;2022-09-03T18:59:09;21.00;82.60
11501;DHT22;5807;51.606;7.624;2022-09-03T19:02:02;21.00;83.80
11501;DHT22;5807;51.606;7.624;2022-09-03T19:05:03;20.90;84.00
11501;DHT22;5807;51.606;7.624;2022-09-03T19:07:54;20.90;85.80
11501;DHT22;5807;51.606;7.624;2022-09-03T19:10:48;20.70;85.40
11501;DHT22;5807;51.606;7.624;2022-09-03T19:13:41;20.70;85.80
11501;DHT22;5807;51.606;7.624;2022-09-03T19:16:37;20.50;85.70
11501;DHT22;5807;51.606;7.624;2022-09-03T19:19:38;20.50;85.90
11501;DHT22;5807;51.606;7.624;2022-09-03T19:22:31;20.60;86.60
11501;DHT22;5807;51.606;7.624;2022-09-03T19:25:16;20.40;86.90
11501;DHT22;5807;51.606;7.624;2022-09-03T19:28:11;20.40;87.20
11501;DHT22;5807;51.606;7.624;2022-09-03T19:34:11;20.20;87.50
11501;DHT22;5807;51.606;7.624;2022-09-03T19:37:02;20.10;88.30
11501;DHT22;5807;51.606;7.624;2022-09-03T19:40:15;20.10;88.00
11501;DHT22;5807;51.606;7.624;2022-09-03T19:43:18;20.00;88.80
11501;DHT22;5807;51.606;7.624;2022-09-03T19:46:11;20.00;89.50
11501;DHT22;5807;51.606;7.624;2022-09-03T19:49:11;19.90;89.10
11501;DHT22;5807;51.606;7.624;2022-09-03T19:52:00;19.80;90.00
11501;DHT22;5807;51.606;7.624;2022-09-03T19:54:49;19.70;90.30
11501;DHT22;5807;51.606;7.624;2022-09-03T19:57:34;19.50;90.30
11501;DHT22;5807;51.606;7.624;2022-09-03T20:00:19;19.50;90.80
11501;DHT22;5807;51.606;7.624;2022-09-03T20:03:04;19.40;91.30
11501;DHT22;5807;51.606;7.624;2022-09-03T20:05:51;19.20;90.90
11501;DHT22;5807;51.606;7.624;2022-09-03T20:08:36;19.20;91.20
11501;DHT22;5807;51.606;7.624;2022-09-03T20:11:22;19.20;91.40
11501;DHT22;5807;51.606;7.624;2022-09-03T20:13:49;19.10;91.70
11501;DHT22;5807;51.606;7.624;2022-09-03T20:16:38;19.00;91.60
11501;DHT22;5807;51.606;7.624;2022-09-03T20:19:14;18.90;92.10
11501;DHT22;5807;51.606;7.624;2022-09-03T20:21:48;18.80;92.20
11501;DHT22;5807;51.606;7.624;2022-09-03T20:24:27;18.80;92.40
11501;DHT22;5807;51.606;7.624;2022-09-03T20:27:06;18.60;92.40
11501;DHT22;5807;51.606;7.624;2022-09-03T20:29:51;18.60;92.70
11501;DHT22;5807;51.606;7.624;2022-09-03T20:32:41;18.60;93.00
11501;DHT22;5807;51.606;7.624;2022-09-03T20:35:16;18.50;93.20
11501;DHT22;5807;51.606;7.624;2022-09-03T20:37:55;18.40;93.40
11501;DHT22;5807;51.606;7.624;2022-09-03T20:40:27;18.30;93.60
11501;DHT22;5807;51.606;7.624;2022-09-03T20:43:12;18.20;93.70
11501;DHT22;5807;51.606;7.624;2022-09-03T20:45:55;18.10;93.70
11501;DHT22;5807;51.606;7.624;2022-09-03T20:48:30;18.10;94.10
11501;DHT22;5807;51.606;7.624;2022-09-03T20:51:07;18.00;94.10
11501;DHT22;5807;51.606;7.624;2022-09-03T20:54:03;17.90;94.10
11501;DHT22;5807;51.606;7.624;2022-09-03T20:56:46;17.90;94.20
11501;DHT22;5807;51.606;7.624;2022-09-03T20:59:28;17.80;94.50
11501;DHT22;5807;51.606;7.624;2022-09-03T21:02:04;18.20;94.90
11501;DHT22;5807;51.606;7.624;2022-09-03T21:04:46;17.80;94.90
11501;DHT22;5807;51.606;7.624;2022-09-03T21:07:21;17.70;95.00
11501;DHT22;5807;51.606;7.624;2022-09-03T21:09:56;17.60;95.10
11501;DHT22;5807;51.606;7.624;2022-09-03T21:12:33;17.60;95.10
11501;DHT22;5807;51.606;7.624;2022-09-03T21:15:15;17.50;95.20
11501;DHT22;5807;51.606;7.624;2022-09-03T21:18:04;17.50;94.90
11501;DHT22;5807;51.606;7.624;2022-09-03T21:20:38;17.50;95.40
11501;DHT22;5807;51.606;7.624;2022-09-03T21:23:20;17.40;95.40
11501;DHT22;5807;51.606;7.624;2022-09-03T21:25:53;17.40;95.30
11501;DHT22;5807;51.606;7.624;2022-09-03T21:28:24;17.40;95.60
11501;DHT22;5807;51.606;7.624;2022-09-03T21:30:56;17.30;95.70
11501;DHT22;5807;51.606;7.624;2022-09-03T21:33:27;17.30;95.80
11501;DHT22;5807;51.606;7.624;2022-09-03T21:36:02;17.20;95.50
11501;DHT22;5807;51.606;7.624;2022-09-03T21:38:33;17.40;95.90
11501;DHT22;5807;51.606;7.624;2022-09-03T21:41:11;17.10;96.00
11501;DHT22;5807;51.606;7.624;2022-09-03T21:43:46;17.10;96.30
11501;DHT22;5807;51.606;7.624;2022-09-03T21:46:19;17.00;96.20
11501;DHT22;5807;51.606;7.624;2022-09-03T21:48:50;17.00;96.50
11501;DHT22;5807;51.606;7.624;2022-09-03T21:51:22;17.00;96.60
11501;DHT22;5807;51.606;7.624;2022-09-03T21:53:54;17.00;96.50
11501;DHT22;5807;51.606;7.624;2022-09-03T21:56:43;16.90;96.80
11501;DHT22;5807;51.606;7.624;2022-09-03T21:59:24;16.90;97.00
11501;DHT22;5807;51.606;7.624;2022-09-03T22:02:02;16.80;97.30
11501;DHT22;5807;51.606;7.624;2022-09-03T22:04:30;16.80;96.70
11501;DHT22;5807;51.606;7.624;2022-09-03T22:07:05;16.80;96.80
11501;DHT22;5807;51.606;7.624;2022-09-03T22:09:39;16.70;96.90
11501;DHT22;5807;51.606;7.624;2022-09-03T22:12:14;16.80;97.00
11501;DHT22;5807;51.606;7.624;2022-09-03T22:14:44;16.80;97.00
11501;DHT22;5807;51.606;7.624;2022-09-03T22:17:16;16.80;97.40
11501;DHT22;5807;51.606;7.624;2022-09-03T22:22:15;16.60;96.70
11501;DHT22;5807;51.606;7.624;2022-09-03T22:24:47;16.70;97.00
11501;DHT22;5807;51.606;7.624;2022-09-03T22:27:21;16.60;97.30
11501;DHT22;5807;51.606;7.624;2022-09-03T22:29:58;16.60;97.30
11501;DHT22;5807;51.606;7.624;2022-09-03T22:32:35;16.50;97.60
11501;DHT22;5807;51.606;7.624;2022-09-03T22:35:29;16.50;97.50
11501;DHT22;5807;51.606;7.624;2022-09-03T22:38:34;16.40;97.30
11501;DHT22;5807;51.606;7.624;2022-09-03T22:41:15;16.40;97.90
11501;DHT22;5807;51.606;7.624;2022-09-03T22:43:50;16.30;97.80
11501;DHT22;5807;51.606;7.624;2022-09-03T22:46:20;16.30;97.80
11501;DHT22;5807;51.606;7.624;2022-09-03T22:49:07;16.20;98.10
11501;DHT22;5807;51.606;7.624;2022-09-03T22:51:51;16.20;98.50
11501;DHT22;5807;51.606;7.624;2022-09-03T22:54:39;16.00;98.40
11501;DHT22;5807;51.606;7.624;2022-09-03T22:57:13;15.90;98.70
11501;DHT22;5807;51.606;7.624;2022-09-03T22:59:44;15.90;98.70
11501;DHT22;5807;51.606;7.624;2022-09-03T23:02:19;15.90;98.80
11501;DHT22;5807;51.606;7.624;2022-09-03T23:04:52;15.80;98.80
11501;DHT22;5807;51.606;7.624;2022-09-03T23:07:26;15.80;99.40
11501;DHT22;5807;51.606;7.624;2022-09-03T23:10:03;15.80;99.30
11501;DHT22;5807;51.606;7.624;2022-09-03T23:12:36;15.70;99.40
11501;DHT22;5807;51.606;7.624;2022-09-03T23:15:08;15.70;99.60
11501;DHT22;5807;51.606;7.624;2022-09-03T23:17:45;15.60;99.80
11501;DHT22;5807;51.606;7.624;2022-09-03T23:20:19;15.60;99.90
11501;DHT22;5807;51.606;7.624;2022-09-03T23:22:49;15.50;99.90
11501;DHT22;5807;51.606;7.624;2022-09-03T23:25:20;15.50;99.90
11501;DHT22;5807;51.606;7.624;2022-09-03T23:27:51;15.50;99.90
11501;DHT22;5807;51.606;7.624;2022-09-03T23:32:54;15.40;99.90
11501;DHT22;5807;51.606;7.624;2022-09-03T23:35:26;15.40;99.90
11501;DHT22;5807;51.606;7.624;2022-09-03T23:38:10;15.30;99.90
11501;DHT22;5807;51.606;7.624;2022-09-03T23:40:46;15.20;99.90
11501;DHT22;5807;51.606;7.624;2022-09-03T23:43:42;15.20;99.90
11501;DHT22;5807;51.606;7.624;2022-09-03T23:46:18;15.10;99.90
11501;DHT22;5807;51.606;7.624;2022-09-03T23:49:07;15.20;99.90
11501;DHT22;5807;51.606;7.624;2022-09-03T23:51:52;15.10;99.90
11501;DHT22;5807;51.606;7.624;2022-09-03T23:54:28;15.10;99.90
11501;DHT22;5807;51.606;7.624;2022-09-03T23:57:04;15.10;99.90
11501;DHT22;5807;51.606;7.624;2022-09-03T23:59:49;15.10;99.90
